Terminal Aerodrome Forecast
Issued by NWS

Home | Current Version | Previous Version | Text Only | Print | Product List | Glossary On
Versions: 1 2 3 4 5 6 7 8 9 10 11 12 13 14 15 16 17 18 19 20 21 22 23 24 25 26 27
003
FTUS43 KABR 101737 CCB
TAFPIR
TAF COR
KPIR 101737Z 1018/1118 09014KT 5SM -SN OVC015
      TEMPO 1018/1020 2SM -SN
     FM102100 09014KT P6SM VCSH OVC010
     FM110300 08011KT P6SM OVC008
     FM111600 32012KT P6SM BKN030=

USA.gov is the U.S. government's official web portal to all federal, state and local government web resources and services.